sensor_id;sensor_type;location;lat;lon;timestamp;P1;durP1;ratioP1;P2;durP2;ratioP2
21615;SDS011;10970;48.714;9.584;2022-11-15T00:00:53;7.43;;;6.68;;
21615;SDS011;10970;48.714;9.584;2022-11-15T00:03:23;9.53;;;6.90;;
21615;SDS011;10970;48.714;9.584;2022-11-15T00:05:50;8.52;;;6.50;;
21615;SDS011;10970;48.714;9.584;2022-11-15T00:08:16;9.40;;;7.43;;
21615;SDS011;10970;48.714;9.584;2022-11-15T00:10:41;9.90;;;8.40;;
21615;SDS011;10970;48.714;9.584;2022-11-15T00:13:08;8.87;;;7.10;;
21615;SDS011;10970;48.714;9.584;2022-11-15T00:15:38;7.30;;;5.78;;
21615;SDS011;10970;48.714;9.584;2022-11-15T00:18:04;8.32;;;5.80;;
21615;SDS011;10970;48.714;9.584;2022-11-15T00:20:33;4.55;;;4.15;;
21615;SDS011;10970;48.714;9.584;2022-11-15T00:22:59;7.40;;;5.97;;
21615;SDS011;10970;48.714;9.584;2022-11-15T00:25:24;7.30;;;6.00;;
21615;SDS011;10970;48.714;9.584;2022-11-15T00:27:50;7.40;;;6.13;;
21615;SDS011;10970;48.714;9.584;2022-11-15T00:30:20;7.35;;;5.97;;
21615;SDS011;10970;48.714;9.584;2022-11-15T00:32:46;9.53;;;6.40;;
21615;SDS011;10970;48.714;9.584;2022-11-15T00:35:11;7.17;;;6.43;;
21615;SDS011;10970;48.714;9.584;2022-11-15T00:37:37;8.97;;;6.20;;
21615;SDS011;10970;48.714;9.584;2022-11-15T00:40:03;6.83;;;5.90;;
21615;SDS011;10970;48.714;9.584;2022-11-15T00:42:29;7.37;;;6.57;;
21615;SDS011;10970;48.714;9.584;2022-11-15T00:44:54;7.77;;;5.90;;
21615;SDS011;10970;48.714;9.584;2022-11-15T00:47:20;3.53;;;3.23;;
21615;SDS011;10970;48.714;9.584;2022-11-15T00:49:45;4.60;;;4.20;;
21615;SDS011;10970;48.714;9.584;2022-11-15T00:52:11;6.20;;;5.10;;
21615;SDS011;10970;48.714;9.584;2022-11-15T00:54:36;4.77;;;3.80;;
21615;SDS011;10970;48.714;9.584;2022-11-15T00:57:02;6.27;;;4.40;;
21615;SDS011;10970;48.714;9.584;2022-11-15T00:59:28;5.50;;;3.40;;
21615;SDS011;10970;48.714;9.584;2022-11-15T01:01:53;7.63;;;4.50;;
21615;SDS011;10970;48.714;9.584;2022-11-15T01:04:19;5.07;;;4.40;;
21615;SDS011;10970;48.714;9.584;2022-11-15T01:06:44;5.67;;;5.17;;
21615;SDS011;10970;48.714;9.584;2022-11-15T01:09:10;5.20;;;4.70;;
21615;SDS011;10970;48.714;9.584;2022-11-15T01:11:36;7.40;;;4.83;;
21615;SDS011;10970;48.714;9.584;2022-11-15T01:14:01;7.00;;;5.47;;
21615;SDS011;10970;48.714;9.584;2022-11-15T01:16:27;10.00;;;5.27;;
21615;SDS011;10970;48.714;9.584;2022-11-15T01:18:53;8.60;;;6.60;;
21615;SDS011;10970;48.714;9.584;2022-11-15T01:21:18;7.90;;;6.03;;
21615;SDS011;10970;48.714;9.584;2022-11-15T01:23:44;6.90;;;5.60;;
21615;SDS011;10970;48.714;9.584;2022-11-15T01:26:11;6.30;;;5.57;;
21615;SDS011;10970;48.714;9.584;2022-11-15T01:28:39;5.45;;;4.57;;
21615;SDS011;10970;48.714;9.584;2022-11-15T01:31:11;6.90;;;6.30;;
21615;SDS011;10970;48.714;9.584;2022-11-15T01:33:38;9.32;;;6.68;;
21615;SDS011;10970;48.714;9.584;2022-11-15T01:36:05;14.20;;;7.67;;
21615;SDS011;10970;48.714;9.584;2022-11-15T01:38:31;9.63;;;7.25;;
21615;SDS011;10970;48.714;9.584;2022-11-15T01:40:57;10.07;;;7.03;;
21615;SDS011;10970;48.714;9.584;2022-11-15T01:45:52;9.52;;;7.10;;
21615;SDS011;10970;48.714;9.584;2022-11-15T01:48:43;9.82;;;7.13;;
21615;SDS011;10970;48.714;9.584;2022-11-15T01:51:10;8.95;;;6.32;;
21615;SDS011;10970;48.714;9.584;2022-11-15T01:53:38;7.60;;;6.60;;
21615;SDS011;10970;48.714;9.584;2022-11-15T01:56:11;13.00;;;7.50;;
21615;SDS011;10970;48.714;9.584;2022-11-15T01:58:41;8.10;;;6.38;;
21615;SDS011;10970;48.714;9.584;2022-11-15T02:01:10;8.88;;;7.95;;
21615;SDS011;10970;48.714;9.584;2022-11-15T02:03:40;9.38;;;8.00;;
21615;SDS011;10970;48.714;9.584;2022-11-15T02:06:10;12.13;;;8.07;;
21615;SDS011;10970;48.714;9.584;2022-11-15T02:08:36;9.83;;;7.03;;
21615;SDS011;10970;48.714;9.584;2022-11-15T02:11:04;10.37;;;7.70;;
21615;SDS011;10970;48.714;9.584;2022-11-15T02:13:32;8.35;;;6.72;;
21615;SDS011;10970;48.714;9.584;2022-11-15T02:16:01;8.20;;;7.40;;
21615;SDS011;10970;48.714;9.584;2022-11-15T02:18:41;12.80;;;8.45;;
21615;SDS011;10970;48.714;9.584;2022-11-15T02:21:29;9.45;;;7.80;;
21615;SDS011;10970;48.714;9.584;2022-11-15T02:24:27;7.43;;;6.65;;
21615;SDS011;10970;48.714;9.584;2022-11-15T02:30:03;7.85;;;6.72;;
21615;SDS011;10970;48.714;9.584;2022-11-15T02:32:51;12.15;;;7.53;;
21615;SDS011;10970;48.714;9.584;2022-11-15T02:35:25;9.20;;;6.50;;
21615;SDS011;10970;48.714;9.584;2022-11-15T02:43:37;7.28;;;6.43;;
21615;SDS011;10970;48.714;9.584;2022-11-15T02:49:26;6.88;;;6.15;;
21615;SDS011;10970;48.714;9.584;2022-11-15T02:51:54;7.30;;;6.47;;
21615;SDS011;10970;48.714;9.584;2022-11-15T02:54:24;8.07;;;7.22;;
21615;SDS011;10970;48.714;9.584;2022-11-15T02:56:54;10.85;;;6.68;;
21615;SDS011;10970;48.714;9.584;2022-11-15T03:07:48;7.25;;;6.55;;
21615;SDS011;10970;48.714;9.584;2022-11-15T03:12:54;8.32;;;7.63;;
21615;SDS011;10970;48.714;9.584;2022-11-15T03:15:28;8.75;;;7.57;;
21615;SDS011;10970;48.714;9.584;2022-11-15T03:20:30;8.40;;;6.50;;
21615;SDS011;10970;48.714;9.584;2022-11-15T03:23:00;13.93;;;7.18;;
21615;SDS011;10970;48.714;9.584;2022-11-15T03:25:29;8.30;;;6.65;;
21615;SDS011;10970;48.714;9.584;2022-11-15T03:27:58;11.23;;;7.53;;
21615;SDS011;10970;48.714;9.584;2022-11-15T03:30:30;9.75;;;7.55;;
21615;SDS011;10970;48.714;9.584;2022-11-15T03:32:59;9.50;;;7.03;;
21615;SDS011;10970;48.714;9.584;2022-11-15T03:35:29;8.98;;;6.97;;
21615;SDS011;10970;48.714;9.584;2022-11-15T03:38:15;11.80;;;8.00;;
21615;SDS011;10970;48.714;9.584;2022-11-15T03:40:53;9.50;;;7.15;;
21615;SDS011;10970;48.714;9.584;2022-11-15T03:43:28;8.70;;;6.82;;
21615;SDS011;10970;48.714;9.584;2022-11-15T03:46:11;7.85;;;6.82;;
21615;SDS011;10970;48.714;9.584;2022-11-15T03:48:46;6.45;;;5.85;;
21615;SDS011;10970;48.714;9.584;2022-11-15T03:51:16;7.30;;;6.32;;
21615;SDS011;10970;48.714;9.584;2022-11-15T03:53:42;9.30;;;5.97;;
21615;SDS011;10970;48.714;9.584;2022-11-15T03:56:08;10.77;;;7.30;;
21615;SDS011;10970;48.714;9.584;2022-11-15T03:58:34;7.97;;;7.07;;
21615;SDS011;10970;48.714;9.584;2022-11-15T04:00:59;11.90;;;6.90;;
21615;SDS011;10970;48.714;9.584;2022-11-15T04:03:25;8.63;;;6.67;;
21615;SDS011;10970;48.714;9.584;2022-11-15T04:05:51;9.10;;;8.00;;
21615;SDS011;10970;48.714;9.584;2022-11-15T04:08:16;7.60;;;5.77;;
21615;SDS011;10970;48.714;9.584;2022-11-15T04:10:42;9.63;;;7.50;;
21615;SDS011;10970;48.714;9.584;2022-11-15T04:13:08;8.67;;;7.03;;
21615;SDS011;10970;48.714;9.584;2022-11-15T04:15:34;7.27;;;6.57;;
21615;SDS011;10970;48.714;9.584;2022-11-15T04:17:59;8.97;;;7.07;;
21615;SDS011;10970;48.714;9.584;2022-11-15T04:20:29;7.50;;;6.80;;
21615;SDS011;10970;48.714;9.584;2022-11-15T04:23:15;11.30;;;7.15;;
21615;SDS011;10970;48.714;9.584;2022-11-15T04:26:04;8.07;;;6.85;;
21615;SDS011;10970;48.714;9.584;2022-11-15T04:28:39;11.38;;;7.90;;
21615;SDS011;10970;48.714;9.584;2022-11-15T04:31:25;7.88;;;6.25;;
21615;SDS011;10970;48.714;9.584;2022-11-15T04:33:51;6.63;;;4.45;;
21615;SDS011;10970;48.714;9.584;2022-11-15T04:36:18;7.35;;;6.68;;
21615;SDS011;10970;48.714;9.584;2022-11-15T04:39:02;6.28;;;5.68;;
21615;SDS011;10970;48.714;9.584;2022-11-15T04:41:28;6.83;;;5.50;;
21615;SDS011;10970;48.714;9.584;2022-11-15T04:43:54;7.20;;;5.77;;
21615;SDS011;10970;48.714;9.584;2022-11-15T04:46:20;7.57;;;4.82;;
21615;SDS011;10970;48.714;9.584;2022-11-15T04:48:47;5.25;;;4.63;;
21615;SDS011;10970;48.714;9.584;2022-11-15T04:51:12;5.67;;;5.07;;
21615;SDS011;10970;48.714;9.584;2022-11-15T04:53:38;5.57;;;4.93;;
21615;SDS011;10970;48.714;9.584;2022-11-15T04:56:04;5.33;;;4.20;;
21615;SDS011;10970;48.714;9.584;2022-11-15T04:58:29;6.60;;;4.70;;
21615;SDS011;10970;48.714;9.584;2022-11-15T05:00:55;10.10;;;4.67;;
21615;SDS011;10970;48.714;9.584;2022-11-15T05:03:20;5.07;;;4.57;;
21615;SDS011;10970;48.714;9.584;2022-11-15T05:06:05;5.55;;;3.92;;
21615;SDS011;10970;48.714;9.584;2022-11-15T05:08:31;4.65;;;4.25;;
21615;SDS011;10970;48.714;9.584;2022-11-15T05:10:57;4.95;;;4.25;;
21615;SDS011;10970;48.714;9.584;2022-11-15T05:13:23;7.40;;;4.47;;
21615;SDS011;10970;48.714;9.584;2022-11-15T05:15:48;5.43;;;4.40;;
21615;SDS011;10970;48.714;9.584;2022-11-15T05:18:14;5.17;;;4.50;;
21615;SDS011;10970;48.714;9.584;2022-11-15T05:20:40;4.73;;;4.20;;
21615;SDS011;10970;48.714;9.584;2022-11-15T05:23:05;7.17;;;3.67;;
21615;SDS011;10970;48.714;9.584;2022-11-15T05:25:31;6.80;;;4.10;;
21615;SDS011;10970;48.714;9.584;2022-11-15T05:27:57;4.80;;;3.50;;
21615;SDS011;10970;48.714;9.584;2022-11-15T05:30:22;3.97;;;3.67;;
21615;SDS011;10970;48.714;9.584;2022-11-15T05:32:48;4.83;;;4.10;;
21615;SDS011;10970;48.714;9.584;2022-11-15T05:35:18;4.20;;;3.83;;
21615;SDS011;10970;48.714;9.584;2022-11-15T05:38:05;4.38;;;3.53;;
21615;SDS011;10970;48.714;9.584;2022-11-15T05:40:31;6.90;;;5.37;;
21615;SDS011;10970;48.714;9.584;2022-11-15T05:42:58;10.52;;;6.00;;
21615;SDS011;10970;48.714;9.584;2022-11-15T05:45:26;5.97;;;4.38;;
21615;SDS011;10970;48.714;9.584;2022-11-15T05:47:53;4.22;;;3.83;;
21615;SDS011;10970;48.714;9.584;2022-11-15T05:50:21;3.80;;;3.50;;
21615;SDS011;10970;48.714;9.584;2022-11-15T05:52:48;6.57;;;4.75;;
21615;SDS011;10970;48.714;9.584;2022-11-15T05:55:14;5.78;;;4.45;;
21615;SDS011;10970;48.714;9.584;2022-11-15T05:57:40;5.18;;;4.78;;
21615;SDS011;10970;48.714;9.584;2022-11-15T06:00:06;4.23;;;3.83;;
21615;SDS011;10970;48.714;9.584;2022-11-15T06:02:33;5.63;;;5.05;;
21615;SDS011;10970;48.714;9.584;2022-11-15T06:04:58;5.93;;;5.03;;
21615;SDS011;10970;48.714;9.584;2022-11-15T06:07:24;6.70;;;5.10;;
21615;SDS011;10970;48.714;9.584;2022-11-15T06:09:49;5.83;;;5.00;;
21615;SDS011;10970;48.714;9.584;2022-11-15T06:12:15;5.40;;;4.90;;
21615;SDS011;10970;48.714;9.584;2022-11-15T06:14:41;5.53;;;5.00;;
21615;SDS011;10970;48.714;9.584;2022-11-15T06:17:06;5.70;;;4.80;;
21615;SDS011;10970;48.714;9.584;2022-11-15T06:19:32;6.43;;;4.50;;
21615;SDS011;10970;48.714;9.584;2022-11-15T06:22:01;8.30;;;5.20;;
21615;SDS011;10970;48.714;9.584;2022-11-15T06:24:27;7.32;;;5.60;;
21615;SDS011;10970;48.714;9.584;2022-11-15T06:26:52;7.93;;;5.83;;
21615;SDS011;10970;48.714;9.584;2022-11-15T06:29:18;6.00;;;5.40;;
21615;SDS011;10970;48.714;9.584;2022-11-15T06:31:44;5.90;;;4.90;;
21615;SDS011;10970;48.714;9.584;2022-11-15T06:34:10;7.87;;;6.03;;
21615;SDS011;10970;48.714;9.584;2022-11-15T06:36:36;5.80;;;4.57;;
21615;SDS011;10970;48.714;9.584;2022-11-15T06:39:05;6.18;;;5.57;;
21615;SDS011;10970;48.714;9.584;2022-11-15T06:41:33;11.15;;;6.32;;
21615;SDS011;10970;48.714;9.584;2022-11-15T06:43:59;9.88;;;5.72;;
21615;SDS011;10970;48.714;9.584;2022-11-15T06:46:25;9.87;;;6.23;;
21615;SDS011;10970;48.714;9.584;2022-11-15T06:48:51;6.30;;;5.70;;
21615;SDS011;10970;48.714;9.584;2022-11-15T06:51:18;8.23;;;5.80;;
21615;SDS011;10970;48.714;9.584;2022-11-15T06:53:43;7.43;;;6.57;;
21615;SDS011;10970;48.714;9.584;2022-11-15T06:56:09;10.97;;;5.57;;
21615;SDS011;10970;48.714;9.584;2022-11-15T06:58:35;8.30;;;7.37;;
21615;SDS011;10970;48.714;9.584;2022-11-15T07:01:05;7.40;;;6.60;;
21615;SDS011;10970;48.714;9.584;2022-11-15T07:03:35;10.02;;;7.57;;
21615;SDS011;10970;48.714;9.584;2022-11-15T07:06:05;7.20;;;5.95;;
21615;SDS011;10970;48.714;9.584;2022-11-15T07:08:31;6.63;;;6.00;;
21615;SDS011;10970;48.714;9.584;2022-11-15T07:10:58;11.23;;;6.43;;
21615;SDS011;10970;48.714;9.584;2022-11-15T07:13:25;10.82;;;7.03;;
21615;SDS011;10970;48.714;9.584;2022-11-15T07:15:52;8.05;;;6.65;;
21615;SDS011;10970;48.714;9.584;2022-11-15T07:18:18;9.43;;;7.30;;
21615;SDS011;10970;48.714;9.584;2022-11-15T07:20:43;8.23;;;6.07;;
21615;SDS011;10970;48.714;9.584;2022-11-15T07:23:09;10.30;;;7.20;;
21615;SDS011;10970;48.714;9.584;2022-11-15T07:25:35;10.90;;;7.40;;
21615;SDS011;10970;48.714;9.584;2022-11-15T07:28:01;8.57;;;7.17;;
21615;SDS011;10970;48.714;9.584;2022-11-15T07:30:27;11.60;;;7.83;;
21615;SDS011;10970;48.714;9.584;2022-11-15T07:32:56;8.85;;;7.10;;
21615;SDS011;10970;48.714;9.584;2022-11-15T07:35:23;7.47;;;6.50;;
21615;SDS011;10970;48.714;9.584;2022-11-15T07:37:53;7.30;;;6.45;;
21615;SDS011;10970;48.714;9.584;2022-11-15T07:40:23;7.88;;;6.68;;
21615;SDS011;10970;48.714;9.584;2022-11-15T07:42:49;10.93;;;8.10;;
21615;SDS011;10970;48.714;9.584;2022-11-15T07:45:19;14.50;;;7.70;;
21615;SDS011;10970;48.714;9.584;2022-11-15T07:47:45;11.38;;;6.85;;
21615;SDS011;10970;48.714;9.584;2022-11-15T07:50:12;8.20;;;7.32;;
21615;SDS011;10970;48.714;9.584;2022-11-15T07:52:37;8.53;;;7.63;;
21615;SDS011;10970;48.714;9.584;2022-11-15T07:55:03;11.30;;;7.50;;
21615;SDS011;10970;48.714;9.584;2022-11-15T07:57:29;8.05;;;5.90;;
21615;SDS011;10970;48.714;9.584;2022-11-15T07:59:55;7.30;;;5.83;;
21615;SDS011;10970;48.714;9.584;2022-11-15T08:02:20;8.27;;;6.20;;
21615;SDS011;10970;48.714;9.584;2022-11-15T08:04:46;7.27;;;6.53;;
21615;SDS011;10970;48.714;9.584;2022-11-15T08:07:12;10.90;;;6.83;;
21615;SDS011;10970;48.714;9.584;2022-11-15T08:09:37;13.57;;;7.63;;
21615;SDS011;10970;48.714;9.584;2022-11-15T08:12:03;13.93;;;7.30;;
21615;SDS011;10970;48.714;9.584;2022-11-15T08:14:29;9.45;;;6.40;;
21615;SDS011;10970;48.714;9.584;2022-11-15T08:16:55;11.40;;;7.47;;
21615;SDS011;10970;48.714;9.584;2022-11-15T08:19:20;8.57;;;6.97;;
21615;SDS011;10970;48.714;9.584;2022-11-15T08:21:47;8.97;;;6.70;;
21615;SDS011;10970;48.714;9.584;2022-11-15T08:24:13;7.65;;;5.95;;
21615;SDS011;10970;48.714;9.584;2022-11-15T08:26:39;9.90;;;8.50;;
21615;SDS011;10970;48.714;9.584;2022-11-15T08:29:05;10.50;;;7.90;;
21615;SDS011;10970;48.714;9.584;2022-11-15T08:31:33;10.50;;;7.37;;
21615;SDS011;10970;48.714;9.584;2022-11-15T08:34:01;8.17;;;6.67;;
21615;SDS011;10970;48.714;9.584;2022-11-15T08:36:27;9.77;;;7.03;;
21615;SDS011;10970;48.714;9.584;2022-11-15T08:38:53;13.30;;;7.10;;
21615;SDS011;10970;48.714;9.584;2022-11-15T08:41:26;9.47;;;8.17;;
21615;SDS011;10970;48.714;9.584;2022-11-15T08:43:58;10.97;;;7.07;;
21615;SDS011;10970;48.714;9.584;2022-11-15T08:46:23;8.50;;;5.90;;
21615;SDS011;10970;48.714;9.584;2022-11-15T08:48:49;13.07;;;7.33;;
21615;SDS011;10970;48.714;9.584;2022-11-15T08:51:15;10.47;;;6.30;;
21615;SDS011;10970;48.714;9.584;2022-11-15T08:53:41;7.53;;;6.10;;
21615;SDS011;10970;48.714;9.584;2022-11-15T08:56:07;13.50;;;7.50;;
21615;SDS011;10970;48.714;9.584;2022-11-15T08:58:34;8.33;;;7.00;;
21615;SDS011;10970;48.714;9.584;2022-11-15T09:01:00;13.80;;;6.67;;
21615;SDS011;10970;48.714;9.584;2022-11-15T09:03:26;7.63;;;6.80;;
21615;SDS011;10970;48.714;9.584;2022-11-15T09:05:56;6.60;;;6.07;;
21615;SDS011;10970;48.714;9.584;2022-11-15T09:08:23;10.53;;;8.13;;
21615;SDS011;10970;48.714;9.584;2022-11-15T09:10:49;10.17;;;7.13;;
21615;SDS011;10970;48.714;9.584;2022-11-15T09:13:15;7.50;;;6.70;;
21615;SDS011;10970;48.714;9.584;2022-11-15T09:15:41;6.50;;;5.90;;
21615;SDS011;10970;48.714;9.584;2022-11-15T09:18:07;8.80;;;7.20;;
21615;SDS011;10970;48.714;9.584;2022-11-15T09:23:37;10.10;;;7.13;;
21615;SDS011;10970;48.714;9.584;2022-11-15T09:26:04;10.37;;;7.27;;
21615;SDS011;10970;48.714;9.584;2022-11-15T09:28:30;7.83;;;7.03;;
21615;SDS011;10970;48.714;9.584;2022-11-15T09:30:58;11.07;;;8.23;;
21615;SDS011;10970;48.714;9.584;2022-11-15T09:33:25;9.33;;;8.47;;
21615;SDS011;10970;48.714;9.584;2022-11-15T09:35:51;11.17;;;8.00;;
21615;SDS011;10970;48.714;9.584;2022-11-15T09:38:17;11.50;;;9.40;;
21615;SDS011;10970;48.714;9.584;2022-11-15T09:40:43;8.07;;;7.10;;
21615;SDS011;10970;48.714;9.584;2022-11-15T09:45:57;8.00;;;7.20;;
21615;SDS011;10970;48.714;9.584;2022-11-15T09:48:31;9.40;;;8.03;;
21615;SDS011;10970;48.714;9.584;2022-11-15T09:51:21;7.93;;;6.87;;
21615;SDS011;10970;48.714;9.584;2022-11-15T09:56:49;7.93;;;7.07;;
21615;SDS011;10970;48.714;9.584;2022-11-15T09:59:41;10.20;;;7.57;;
21615;SDS011;10970;48.714;9.584;2022-11-15T10:04:33;7.40;;;6.33;;
21615;SDS011;10970;48.714;9.584;2022-11-15T10:07:06;9.77;;;7.17;;
21615;SDS011;10970;48.714;9.584;2022-11-15T10:09:53;8.70;;;7.77;;
21615;SDS011;10970;48.714;9.584;2022-11-15T10:12:28;9.90;;;7.63;;
21615;SDS011;10970;48.714;9.584;2022-11-15T10:15:00;7.03;;;6.40;;
21615;SDS011;10970;48.714;9.584;2022-11-15T10:20:49;9.93;;;7.63;;
21615;SDS011;10970;48.714;9.584;2022-11-15T10:23:21;9.60;;;7.83;;
21615;SDS011;10970;48.714;9.584;2022-11-15T10:25:50;11.30;;;7.97;;
21615;SDS011;10970;48.714;9.584;2022-11-15T10:28:28;8.30;;;7.13;;
21615;SDS011;10970;48.714;9.584;2022-11-15T10:30:55;9.17;;;7.67;;
21615;SDS011;10970;48.714;9.584;2022-11-15T10:33:38;9.83;;;8.53;;
21615;SDS011;10970;48.714;9.584;2022-11-15T10:36:14;8.10;;;7.10;;
21615;SDS011;10970;48.714;9.584;2022-11-15T10:41:15;7.63;;;6.63;;
21615;SDS011;10970;48.714;9.584;2022-11-15T10:49:25;9.50;;;7.63;;
21615;SDS011;10970;48.714;9.584;2022-11-15T10:51:56;9.53;;;6.87;;
21615;SDS011;10970;48.714;9.584;2022-11-15T10:54:41;7.03;;;6.00;;
21615;SDS011;10970;48.714;9.584;2022-11-15T10:57:17;8.73;;;7.10;;
21615;SDS011;10970;48.714;9.584;2022-11-15T10:59:46;8.63;;;6.73;;
21615;SDS011;10970;48.714;9.584;2022-11-15T11:02:31;7.30;;;5.87;;
21615;SDS011;10970;48.714;9.584;2022-11-15T11:04:58;7.80;;;6.60;;
21615;SDS011;10970;48.714;9.584;2022-11-15T11:07:29;6.83;;;6.13;;
21615;SDS011;10970;48.714;9.584;2022-11-15T11:10:17;10.50;;;6.10;;
21615;SDS011;10970;48.714;9.584;2022-11-15T11:12:44;7.17;;;6.40;;
21615;SDS011;10970;48.714;9.584;2022-11-15T11:15:11;15.00;;;7.03;;
21615;SDS011;10970;48.714;9.584;2022-11-15T11:17:58;8.77;;;6.43;;
21615;SDS011;10970;48.714;9.584;2022-11-15T11:23:15;7.03;;;5.80;;
21615;SDS011;10970;48.714;9.584;2022-11-15T11:26:16;7.57;;;5.43;;
21615;SDS011;10970;48.714;9.584;2022-11-15T11:37:12;5.70;;;4.63;;
21615;SDS011;10970;48.714;9.584;2022-11-15T11:39:59;4.97;;;4.50;;
21615;SDS011;10970;48.714;9.584;2022-11-15T11:42:34;9.43;;;5.37;;
21615;SDS011;10970;48.714;9.584;2022-11-15T11:50:45;6.43;;;4.97;;
21615;SDS011;10970;48.714;9.584;2022-11-15T11:53:26;6.20;;;5.33;;
21615;SDS011;10970;48.714;9.584;2022-11-15T11:56:04;4.57;;;4.17;;
21615;SDS011;10970;48.714;9.584;2022-11-15T11:58:43;5.03;;;4.47;;
21615;SDS011;10970;48.714;9.584;2022-11-15T12:09:13;8.53;;;4.80;;
21615;SDS011;10970;48.714;9.584;2022-11-15T12:17:08;5.50;;;4.83;;
21615;SDS011;10970;48.714;9.584;2022-11-15T12:19:36;7.20;;;4.40;;
21615;SDS011;10970;48.714;9.584;2022-11-15T12:22:09;4.97;;;3.07;;
21615;SDS011;10970;48.714;9.584;2022-11-15T12:24:41;4.27;;;3.87;;
21615;SDS011;10970;48.714;9.584;2022-11-15T12:30:19;5.07;;;4.43;;
21615;SDS011;10970;48.714;9.584;2022-11-15T12:32:51;5.87;;;4.70;;
21615;SDS011;10970;48.714;9.584;2022-11-15T12:38:02;3.87;;;3.40;;
21615;SDS011;10970;48.714;9.584;2022-11-15T12:40:32;4.33;;;3.50;;
21615;SDS011;10970;48.714;9.584;2022-11-15T12:43:01;6.43;;;4.13;;
21615;SDS011;10970;48.714;9.584;2022-11-15T12:45:37;2.90;;;2.60;;
21615;SDS011;10970;48.714;9.584;2022-11-15T12:56:08;3.73;;;2.53;;
21615;SDS011;10970;48.714;9.584;2022-11-15T12:58:58;7.13;;;3.80;;
21615;SDS011;10970;48.714;9.584;2022-11-15T13:12:47;3.93;;;3.60;;
21615;SDS011;10970;48.714;9.584;2022-11-15T13:14:59;5.07;;;3.80;;
21615;SDS011;10970;48.714;9.584;2022-11-15T13:22:48;4.13;;;3.73;;
21615;SDS011;10970;48.714;9.584;2022-11-15T13:30:58;4.77;;;4.37;;
21615;SDS011;10970;48.714;9.584;2022-11-15T13:33:32;7.73;;;6.13;;
21615;SDS011;10970;48.714;9.584;2022-11-15T13:36:05;7.40;;;5.03;;
21615;SDS011;10970;48.714;9.584;2022-11-15T13:38:35;4.50;;;4.10;;
21615;SDS011;10970;48.714;9.584;2022-11-15T13:41:19;5.80;;;4.70;;
21615;SDS011;10970;48.714;9.584;2022-11-15T13:43:48;5.60;;;4.07;;
21615;SDS011;10970;48.714;9.584;2022-11-15T13:46:19;6.13;;;4.60;;
21615;SDS011;10970;48.714;9.584;2022-11-15T13:49:31;6.27;;;3.97;;
21615;SDS011;10970;48.714;9.584;2022-11-15T13:51:39;4.40;;;3.43;;
21615;SDS011;10970;48.714;9.584;2022-11-15T13:56:32;6.33;;;3.30;;
21615;SDS011;10970;48.714;9.584;2022-11-15T13:58:59;13.10;;;4.07;;
21615;SDS011;10970;48.714;9.584;2022-11-15T14:01:27;4.40;;;3.70;;
21615;SDS011;10970;48.714;9.584;2022-11-15T14:03:57;7.00;;;3.30;;
21615;SDS011;10970;48.714;9.584;2022-11-15T14:06:25;5.83;;;5.30;;
21615;SDS011;10970;48.714;9.584;2022-11-15T14:09:00;4.80;;;3.73;;
21615;SDS011;10970;48.714;9.584;2022-11-15T14:11:29;7.83;;;4.67;;
21615;SDS011;10970;48.714;9.584;2022-11-15T14:16:37;4.17;;;3.20;;
21615;SDS011;10970;48.714;9.584;2022-11-15T14:24:35;5.87;;;4.80;;
21615;SDS011;10970;48.714;9.584;2022-11-15T14:27:21;13.63;;;7.90;;
21615;SDS011;10970;48.714;9.584;2022-11-15T14:29:51;8.97;;;6.63;;
21615;SDS011;10970;48.714;9.584;2022-11-15T14:32:18;5.40;;;4.90;;
21615;SDS011;10970;48.714;9.584;2022-11-15T14:34:46;7.07;;;4.00;;
21615;SDS011;10970;48.714;9.584;2022-11-15T14:37:32;3.63;;;3.10;;
21615;SDS011;10970;48.714;9.584;2022-11-15T14:40:00;7.47;;;3.97;;
21615;SDS011;10970;48.714;9.584;2022-11-15T14:42:29;8.93;;;4.53;;
21615;SDS011;10970;48.714;9.584;2022-11-15T14:44:55;4.40;;;3.50;;
21615;SDS011;10970;48.714;9.584;2022-11-15T14:47:21;3.23;;;3.00;;
21615;SDS011;10970;48.714;9.584;2022-11-15T14:49:46;4.00;;;3.57;;
21615;SDS011;10970;48.714;9.584;2022-11-15T14:54:50;3.70;;;3.40;;
21615;SDS011;10970;48.714;9.584;2022-11-15T14:57:16;4.33;;;3.93;;
21615;SDS011;10970;48.714;9.584;2022-11-15T14:59:42;4.70;;;3.83;;
21615;SDS011;10970;48.714;9.584;2022-11-15T15:02:13;3.97;;;3.57;;
21615;SDS011;10970;48.714;9.584;2022-11-15T15:04:41;5.20;;;3.70;;
21615;SDS011;10970;48.714;9.584;2022-11-15T15:07:06;6.67;;;3.83;;
21615;SDS011;10970;48.714;9.584;2022-11-15T15:09:32;3.93;;;3.53;;
21615;SDS011;10970;48.714;9.584;2022-11-15T15:11:58;4.40;;;4.00;;
21615;SDS011;10970;48.714;9.584;2022-11-15T15:14:23;6.13;;;3.20;;
21615;SDS011;10970;48.714;9.584;2022-11-15T15:16:49;7.80;;;3.70;;
21615;SDS011;10970;48.714;9.584;2022-11-15T15:19:14;4.83;;;3.63;;
21615;SDS011;10970;48.714;9.584;2022-11-15T15:21:40;4.93;;;3.60;;
21615;SDS011;10970;48.714;9.584;2022-11-15T15:24:07;7.10;;;3.43;;
21615;SDS011;10970;48.714;9.584;2022-11-15T15:26:39;4.87;;;3.40;;
21615;SDS011;10970;48.714;9.584;2022-11-15T15:29:05;3.87;;;3.53;;
21615;SDS011;10970;48.714;9.584;2022-11-15T15:31:33;4.23;;;3.80;;
21615;SDS011;10970;48.714;9.584;2022-11-15T15:33:59;7.50;;;4.23;;
21615;SDS011;10970;48.714;9.584;2022-11-15T15:36:25;5.13;;;4.10;;
21615;SDS011;10970;48.714;9.584;2022-11-15T15:38:50;7.53;;;5.40;;
21615;SDS011;10970;48.714;9.584;2022-11-15T15:41:17;7.13;;;3.80;;
21615;SDS011;10970;48.714;9.584;2022-11-15T15:43:43;6.07;;;4.87;;
21615;SDS011;10970;48.714;9.584;2022-11-15T15:46:09;5.33;;;4.73;;
21615;SDS011;10970;48.714;9.584;2022-11-15T15:48:38;5.10;;;4.60;;
21615;SDS011;10970;48.714;9.584;2022-11-15T15:51:04;6.33;;;4.70;;
21615;SDS011;10970;48.714;9.584;2022-11-15T15:53:30;5.80;;;5.00;;
21615;SDS011;10970;48.714;9.584;2022-11-15T15:55:56;7.03;;;4.50;;
21615;SDS011;10970;48.714;9.584;2022-11-15T15:58:22;8.63;;;4.17;;
21615;SDS011;10970;48.714;9.584;2022-11-15T16:00:48;5.90;;;3.17;;
21615;SDS011;10970;48.714;9.584;2022-11-15T16:03:14;5.03;;;3.20;;
21615;SDS011;10970;48.714;9.584;2022-11-15T16:05:40;4.80;;;3.70;;
21615;SDS011;10970;48.714;9.584;2022-11-15T16:08:05;6.03;;;3.80;;
21615;SDS011;10970;48.714;9.584;2022-11-15T16:10:42;3.73;;;3.33;;
21615;SDS011;10970;48.714;9.584;2022-11-15T16:13:07;9.40;;;3.60;;
21615;SDS011;10970;48.714;9.584;2022-11-15T16:15:33;5.43;;;4.23;;
21615;SDS011;10970;48.714;9.584;2022-11-15T16:18:00;5.43;;;3.57;;
21615;SDS011;10970;48.714;9.584;2022-11-15T16:23:03;4.60;;;3.83;;
21615;SDS011;10970;48.714;9.584;2022-11-15T16:25:32;5.70;;;3.50;;
21615;SDS011;10970;48.714;9.584;2022-11-15T16:28:02;5.93;;;4.20;;
21615;SDS011;10970;48.714;9.584;2022-11-15T16:30:27;9.80;;;5.40;;
21615;SDS011;10970;48.714;9.584;2022-11-15T16:32:53;6.97;;;5.53;;
21615;SDS011;10970;48.714;9.584;2022-11-15T16:35:19;6.23;;;5.60;;
21615;SDS011;10970;48.714;9.584;2022-11-15T16:37:45;7.33;;;5.50;;
21615;SDS011;10970;48.714;9.584;2022-11-15T16:42:51;12.43;;;6.37;;
21615;SDS011;10970;48.714;9.584;2022-11-15T16:45:16;13.63;;;8.33;;
21615;SDS011;10970;48.714;9.584;2022-11-15T16:47:42;14.40;;;7.90;;
21615;SDS011;10970;48.714;9.584;2022-11-15T16:50:15;8.93;;;7.30;;
21615;SDS011;10970;48.714;9.584;2022-11-15T16:52:53;8.33;;;7.50;;
21615;SDS011;10970;48.714;9.584;2022-11-15T16:55:21;17.90;;;9.70;;
21615;SDS011;10970;48.714;9.584;2022-11-15T16:57:48;14.43;;;9.10;;
21615;SDS011;10970;48.714;9.584;2022-11-15T17:00:15;9.47;;;7.57;;
21615;SDS011;10970;48.714;9.584;2022-11-15T17:02:45;18.07;;;8.70;;
21615;SDS011;10970;48.714;9.584;2022-11-15T17:05:12;16.37;;;8.30;;
21615;SDS011;10970;48.714;9.584;2022-11-15T17:07:39;10.47;;;8.40;;
21615;SDS011;10970;48.714;9.584;2022-11-15T17:10:05;12.90;;;8.97;;
21615;SDS011;10970;48.714;9.584;2022-11-15T17:12:33;9.30;;;8.23;;